createdAt,value
2019-04-22T00:02:20.933Z,2.90
2019-04-22T00:05:02.235Z,2.90
2019-04-22T00:07:46.326Z,2.97
2019-04-22T00:10:19.322Z,3.17
2019-04-22T00:12:49.987Z,3.50
2019-04-22T00:15:12.722Z,3.10
2019-04-22T00:17:58.858Z,2.93
2019-04-22T00:20:15.460Z,3.10
2019-04-22T00:22:46.233Z,3.27
2019-04-22T00:25:19.973Z,3.40
2019-04-22T00:27:52.260Z,3.37
2019-04-22T00:30:20.942Z,3.60
2019-04-22T00:32:49.720Z,3.00
2019-04-22T00:35:19.792Z,3.20
2019-04-22T00:37:53.275Z,3.00
2019-04-22T00:40:21.013Z,3.30
2019-04-22T00:42:53.850Z,3.30
2019-04-22T00:47:56.337Z,3.33
2019-04-22T00:50:25.546Z,3.00
2019-04-22T00:52:57.632Z,3.37
2019-04-22T00:55:29.889Z,3.33
2019-04-22T00:57:58.080Z,3.40
2019-04-22T01:00:29.194Z,3.30
2019-04-22T01:02:54.400Z,2.90
2019-04-22T01:05:27.776Z,3.30
2019-04-22T01:08:04.313Z,3.03
2019-04-22T01:10:25.265Z,3.50
2019-04-22T01:12:51.531Z,3.23
2019-04-22T01:15:28.810Z,3.40
2019-04-22T01:17:54.045Z,3.77
2019-04-22T01:20:52.381Z,3.40
2019-04-22T01:22:53.222Z,3.07
2019-04-22T01:25:19.183Z,3.33
2019-04-22T01:27:48.882Z,3.60
2019-04-22T01:30:15.062Z,3.50
2019-04-22T01:32:40.034Z,3.17
2019-04-22T01:35:17.973Z,3.80
2019-04-22T01:37:54.715Z,3.40
2019-04-22T01:40:33.413Z,3.30
2019-04-22T01:43:08.673Z,3.50
2019-04-22T01:45:32.997Z,3.70
2019-04-22T01:48:02.949Z,3.73
2019-04-22T01:50:30.737Z,3.40
2019-04-22T01:53:06.307Z,3.30
2019-04-22T01:55:38.820Z,3.50
2019-04-22T01:57:59.615Z,3.80
2019-04-22T02:00:40.176Z,3.60
2019-04-22T02:03:10.547Z,3.93
2019-04-22T02:05:39.408Z,3.47
2019-04-22T02:08:15.436Z,3.30
2019-04-22T02:10:50.862Z,4.00
2019-04-22T02:13:06.693Z,3.23
2019-04-22T02:15:43.736Z,3.93
2019-04-22T02:18:18.098Z,5.47
2019-04-22T02:20:44.300Z,3.67
2019-04-22T02:23:45.440Z,3.43
2019-04-22T02:26:10.158Z,3.53
2019-04-22T02:28:46.128Z,3.70
2019-04-22T02:34:05.363Z,3.67
2019-04-22T02:36:22.671Z,3.80
2019-04-22T02:41:22.853Z,3.77
2019-04-22T02:43:53.383Z,3.37
2019-04-22T02:51:17.146Z,3.93
2019-04-22T02:54:15.244Z,3.60
2019-04-22T02:56:27.634Z,3.73
2019-04-22T02:58:55.087Z,4.00
2019-04-22T03:01:27.599Z,4.20
2019-04-22T03:04:01.248Z,3.83
2019-04-22T03:08:51.229Z,4.03
2019-04-22T03:13:55.975Z,3.90
2019-04-22T03:23:55.640Z,4.40
2019-04-22T03:28:51.103Z,4.20
2019-04-22T03:31:54.133Z,4.47
2019-04-22T03:34:38.652Z,4.03
2019-04-22T03:39:19.428Z,4.10
2019-04-22T03:41:39.341Z,4.30
2019-04-22T03:46:36.807Z,3.97
2019-04-22T03:49:10.906Z,4.50
2019-04-22T03:51:43.426Z,4.13
2019-04-22T03:59:13.885Z,5.00
2019-04-22T04:01:36.948Z,5.03
2019-04-22T04:04:09.410Z,4.37
2019-04-22T04:06:43.190Z,4.63
2019-04-22T04:08:59.243Z,5.47
2019-04-22T04:11:43.187Z,4.30
2019-04-22T04:19:07.131Z,4.93
2019-04-22T04:21:37.915Z,4.60
2019-04-22T04:24:11.362Z,3.97
2019-04-22T04:26:46.039Z,4.47
2019-04-22T04:29:22.615Z,4.40
2019-04-22T04:31:33.575Z,5.00
2019-04-22T04:34:03.339Z,4.23
2019-04-22T04:36:41.735Z,4.53
2019-04-22T04:39:08.455Z,4.13
2019-04-22T04:44:22.757Z,4.30
2019-04-22T04:49:14.066Z,4.63
2019-04-22T04:54:13.168Z,4.40
2019-04-22T04:59:19.469Z,4.73
2019-04-22T05:01:45.043Z,4.30
2019-04-22T05:04:26.391Z,4.57
2019-04-22T05:11:48.547Z,4.37
2019-04-22T05:19:11.195Z,4.70
2019-04-22T05:21:38.495Z,5.30
2019-04-22T05:24:09.507Z,4.70
2019-04-22T05:26:52.395Z,5.00
2019-04-22T05:29:05.406Z,5.10
2019-04-22T05:31:37.198Z,5.23
2019-04-22T05:34:04.356Z,5.27
2019-04-22T05:36:32.835Z,4.57
2019-04-22T05:39:06.151Z,4.67
2019-04-22T05:41:36.420Z,4.77
2019-04-22T05:44:03.293Z,4.97
2019-04-22T05:46:35.811Z,5.03
2019-04-22T05:49:09.874Z,5.37
2019-04-22T05:51:40.278Z,5.57
2019-04-22T05:54:13.105Z,5.20
2019-04-22T05:56:37.197Z,5.27
2019-04-22T05:59:03.644Z,5.17
2019-04-22T06:04:10.848Z,5.17
2019-04-22T06:06:42.981Z,5.63
2019-04-22T06:09:07.732Z,5.10
2019-04-22T06:11:33.956Z,5.67
2019-04-22T06:14:07.808Z,5.90
2019-04-22T06:16:48.014Z,5.60
2019-04-22T06:19:14.392Z,5.13
2019-04-22T06:21:46.312Z,5.63
2019-04-22T06:24:27.620Z,5.27
2019-04-22T06:26:52.709Z,5.13
2019-04-22T06:36:53.932Z,5.20
2019-04-22T06:39:24.239Z,4.80
2019-04-22T06:41:50.565Z,5.03
2019-04-22T06:44:18.738Z,5.03
2019-04-22T06:46:47.445Z,4.90
2019-04-22T06:49:26.209Z,5.10
2019-04-22T06:52:07.991Z,4.90
2019-04-22T06:54:21.635Z,4.90
2019-04-22T06:56:50.675Z,4.57
2019-04-22T06:59:20.583Z,4.47
2019-04-22T07:01:50.361Z,4.57
2019-04-22T07:04:16.254Z,4.47
2019-04-22T07:06:56.551Z,4.67
2019-04-22T07:11:50.750Z,4.00
2019-04-22T07:14:18.187Z,4.53
2019-04-22T07:16:54.475Z,4.23
2019-04-22T07:19:20.595Z,3.97
2019-04-22T07:21:50.608Z,3.90
2019-04-22T07:26:51.119Z,3.40
2019-04-22T07:29:19.927Z,3.27
2019-04-22T07:31:56.307Z,3.67
2019-04-22T07:34:28.389Z,2.93
2019-04-22T07:39:23.507Z,3.12
2019-04-22T07:41:51.289Z,3.15
2019-04-22T07:44:28.057Z,3.45
2019-04-22T07:46:57.976Z,3.12
2019-04-22T07:49:26.687Z,2.92
2019-04-22T07:51:50.189Z,3.00
2019-04-22T07:54:24.078Z,2.65
2019-04-22T07:57:04.602Z,2.77
2019-04-22T07:59:26.839Z,3.08
2019-04-22T08:01:48.912Z,2.50
2019-04-22T08:04:35.819Z,2.60
2019-04-22T08:06:58.953Z,2.55
2019-04-22T08:09:30.862Z,2.50
2019-04-22T08:11:52.235Z,2.67
2019-04-22T08:14:30.002Z,2.37
2019-04-22T08:17:01.026Z,2.50
2019-04-22T08:19:28.107Z,2.50
2019-04-22T08:21:59.965Z,2.52
2019-04-22T08:24:29.388Z,2.80
2019-04-22T08:26:59.335Z,2.85
2019-04-22T08:32:21.697Z,3.25
2019-04-22T08:34:24.832Z,3.47
2019-04-22T08:37:24.113Z,3.55
2019-04-22T08:39:31.150Z,4.10
2019-04-22T08:41:53.101Z,4.33
2019-04-22T08:44:54.840Z,4.12
2019-04-22T08:47:04.243Z,4.20
2019-04-22T08:49:39.511Z,4.03
2019-04-22T08:52:01.424Z,3.62
2019-04-22T08:54:30.890Z,3.72
2019-04-22T08:57:07.336Z,3.33
2019-04-22T08:59:33.260Z,3.50
2019-04-22T09:02:10.139Z,3.10
2019-04-22T09:04:31.323Z,3.70
2019-04-22T09:07:18.392Z,2.85
2019-04-22T09:09:31.193Z,3.00
2019-04-22T09:14:38.834Z,2.90
2019-04-22T09:17:05.960Z,3.72
2019-04-22T09:19:47.661Z,3.47
2019-04-22T09:22:07.969Z,3.27
2019-04-22T09:24:36.247Z,3.77
2019-04-22T09:27:05.569Z,3.30
2019-04-22T09:37:14.420Z,3.47
2019-04-22T09:42:05.050Z,2.80
2019-04-22T09:44:38.940Z,2.50
2019-04-22T09:47:06.227Z,2.72
2019-04-22T09:49:44.747Z,2.30
2019-04-22T09:52:13.069Z,2.17
2019-04-22T09:54:49.226Z,1.90
2019-04-22T09:57:09.520Z,1.80
2019-04-22T09:59:43.800Z,1.92
2019-04-22T10:02:19.659Z,1.60
2019-04-22T10:04:40.217Z,1.75
2019-04-22T10:07:13.859Z,1.77
2019-04-22T10:09:52.829Z,1.67
2019-04-22T10:12:10.417Z,1.60
2019-04-22T10:14:40.018Z,1.60
2019-04-22T10:17:07.401Z,1.67
2019-04-22T10:19:41.268Z,1.70
2019-04-22T10:22:16.667Z,1.57
2019-04-22T10:24:39.277Z,1.50
2019-04-22T10:27:08.158Z,1.32
2019-04-22T10:29:51.479Z,1.47
2019-04-22T10:32:08.456Z,1.40
2019-04-22T10:34:28.332Z,1.57
2019-04-22T10:36:52.723Z,1.50
2019-04-22T10:39:18.131Z,1.50
2019-04-22T10:41:48.491Z,1.60
2019-04-22T10:44:17.286Z,1.37
2019-04-22T10:46:46.268Z,1.42
2019-04-22T10:49:15.991Z,1.77
2019-04-22T10:51:44.686Z,1.70
2019-04-22T10:54:13.622Z,1.32
2019-04-22T10:56:43.264Z,1.67
2019-04-22T10:59:11.815Z,1.77
2019-04-22T11:01:40.461Z,1.62
2019-04-22T11:04:09.204Z,1.90
2019-04-22T11:06:40.938Z,1.90
2019-04-22T11:09:10.440Z,1.60
2019-04-22T11:11:48.746Z,1.80
2019-04-22T11:14:09.023Z,1.93
2019-04-22T11:16:37.491Z,1.90
2019-04-22T11:19:06.033Z,1.90
2019-04-22T11:21:35.810Z,1.93
2019-04-22T11:24:05.088Z,2.43
2019-04-22T11:26:34.630Z,2.00
2019-04-22T11:29:03.652Z,2.17
2019-04-22T11:31:32.493Z,2.30
2019-04-22T11:34:01.015Z,2.20
2019-04-22T11:36:30.842Z,2.30
2019-04-22T11:39:02.390Z,2.20
2019-04-22T11:41:31.085Z,2.40
2019-04-22T11:44:01.300Z,2.33
2019-04-22T11:46:31.525Z,2.53
2019-04-22T11:49:00.388Z,2.10
2019-04-22T11:51:29.764Z,2.50
2019-04-22T11:53:58.843Z,2.20
2019-04-22T11:56:29.198Z,2.33
2019-04-22T11:58:57.902Z,2.50
2019-04-22T12:01:26.729Z,2.37
2019-04-22T12:03:55.882Z,2.60
2019-04-22T12:06:24.468Z,2.50
2019-04-22T12:08:54.195Z,2.70
2019-04-22T12:11:23.165Z,2.60
2019-04-22T12:13:51.917Z,2.83
2019-04-22T12:16:21.221Z,3.10
2019-04-22T12:18:51.199Z,3.03
2019-04-22T12:21:21.336Z,3.00
2019-04-22T12:23:50.928Z,2.93
2019-04-22T12:26:23.076Z,3.07
2019-04-22T12:28:51.266Z,2.90
2019-04-22T12:31:19.827Z,2.67
2019-04-22T12:33:49.643Z,2.87
2019-04-22T12:36:18.453Z,2.90
2019-04-22T12:38:47.479Z,2.80
2019-04-22T12:41:17.801Z,3.20
2019-04-22T12:43:47.404Z,2.80
2019-04-22T12:46:16.449Z,2.60
2019-04-22T12:48:46.860Z,3.13
2019-04-22T12:51:16.252Z,2.60
2019-04-22T12:53:46.246Z,3.00
2019-04-22T12:56:15.446Z,2.83
2019-04-22T12:58:45.529Z,3.03
2019-04-22T13:01:15.117Z,2.57
2019-04-22T13:03:44.628Z,2.67
2019-04-22T13:06:14.253Z,2.50
2019-04-22T13:08:43.591Z,2.73
2019-04-22T13:11:17.967Z,2.80
2019-04-22T13:13:43.335Z,3.10
2019-04-22T13:16:13.361Z,2.80
2019-04-22T13:18:49.980Z,2.97
2019-04-22T13:21:13.115Z,2.67
2019-04-22T13:23:41.685Z,2.90
2019-04-22T13:26:10.720Z,2.77
2019-04-22T13:28:39.366Z,2.47
2019-04-22T13:31:09.785Z,2.37
2019-04-22T13:33:38.787Z,3.07
2019-04-22T13:36:08.154Z,2.80
2019-04-22T13:38:38.431Z,2.90
2019-04-22T13:41:19.288Z,3.43
2019-04-22T13:43:37.146Z,2.80
2019-04-22T13:46:06.117Z,3.07
2019-04-22T13:48:59.109Z,2.77
2019-04-22T13:51:36.372Z,3.00
2019-04-22T13:56:27.529Z,3.00
2019-04-22T13:58:48.448Z,2.73
2019-04-22T14:01:07.860Z,2.97
2019-04-22T14:03:44.718Z,3.20
2019-04-22T14:06:13.396Z,3.20
2019-04-22T14:08:43.128Z,3.20
2019-04-22T14:11:23.314Z,3.10
2019-04-22T14:13:41.972Z,2.87
2019-04-22T14:16:11.013Z,2.70
2019-04-22T14:18:41.090Z,2.87
2019-04-22T14:21:09.785Z,2.60
2019-04-22T14:23:38.559Z,2.90
2019-04-22T14:26:07.275Z,2.73
2019-04-22T14:28:37.373Z,2.90
2019-04-22T14:31:06.654Z,3.40
2019-04-22T14:33:36.282Z,2.50
2019-04-22T14:36:05.161Z,2.63
2019-04-22T14:38:34.717Z,2.63
2019-04-22T14:41:03.993Z,2.57
2019-04-22T14:44:00.532Z,2.30
2019-04-22T14:46:30.308Z,2.50
2019-04-22T14:48:55.971Z,2.50
2019-04-22T14:51:25.460Z,2.33
2019-04-22T14:53:52.284Z,2.80
2019-04-22T14:56:04.629Z,2.93
2019-04-22T14:58:33.176Z,3.20
2019-04-22T15:01:03.196Z,2.67
2019-04-22T15:03:31.828Z,2.73
2019-04-22T15:06:00.335Z,2.80
2019-04-22T15:08:29.043Z,3.33
2019-04-22T15:10:58.244Z,2.80
2019-04-22T15:13:27.367Z,3.90
2019-04-22T15:16:03.051Z,2.73
2019-04-22T15:18:41.930Z,2.80
2019-04-22T15:21:16.475Z,2.87
2019-04-22T15:23:46.569Z,3.80
2019-04-22T15:26:15.163Z,2.97
2019-04-22T15:28:45.264Z,2.77
2019-04-22T15:31:15.203Z,2.80
2019-04-22T15:33:47.972Z,2.47
2019-04-22T15:36:14.150Z,2.50
2019-04-22T15:38:42.725Z,2.37
2019-04-22T15:41:12.500Z,2.60
2019-04-22T15:43:41.583Z,2.67
2019-04-22T15:46:11.634Z,2.70
2019-04-22T15:48:40.227Z,2.50
2019-04-22T15:51:08.911Z,2.90
2019-04-22T15:53:37.921Z,2.50
2019-04-22T15:56:06.644Z,2.57
2019-04-22T15:58:35.673Z,2.73
2019-04-22T16:01:12.980Z,2.43
2019-04-22T16:03:36.684Z,2.53
2019-04-22T16:06:06.093Z,2.80
2019-04-22T16:08:40.908Z,3.20
2019-04-22T16:11:09.619Z,2.70
2019-04-22T16:13:40.030Z,2.80
2019-04-22T16:16:10.243Z,3.13
2019-04-22T16:18:40.137Z,2.90
2019-04-22T16:21:09.102Z,2.97
2019-04-22T16:23:40.434Z,3.40
2019-04-22T16:26:18.022Z,3.37
2019-04-22T16:28:47.352Z,3.03
2019-04-22T16:31:17.448Z,3.67
2019-04-22T16:33:47.842Z,3.30
2019-04-22T16:36:16.764Z,3.33
2019-04-22T16:38:46.778Z,3.10
2019-04-22T16:41:16.877Z,3.53
2019-04-22T16:43:46.687Z,3.33
2019-04-22T16:46:15.909Z,3.23
2019-04-22T16:48:45.440Z,3.57
2019-04-22T16:51:14.052Z,3.37
2019-04-22T16:53:43.211Z,3.60
2019-04-22T16:56:12.942Z,3.63
2019-04-22T16:58:42.939Z,4.03
2019-04-22T17:01:20.742Z,4.30
2019-04-22T17:04:00.636Z,4.30
2019-04-22T17:06:31.796Z,4.23
2019-04-22T17:09:00.632Z,4.80
2019-04-22T17:11:29.775Z,4.93
2019-04-22T17:13:59.318Z,5.30
2019-04-22T17:16:28.495Z,5.63
2019-04-22T17:18:58.512Z,5.53
2019-04-22T17:21:27.776Z,5.40
2019-04-22T17:23:56.434Z,4.83
2019-04-22T17:26:26.354Z,5.70
2019-04-22T17:28:55.513Z,5.50
2019-04-22T17:31:24.781Z,6.00
2019-04-22T17:33:54.866Z,5.43
2019-04-22T17:36:24.323Z,6.27
2019-04-22T17:39:01.172Z,5.93
2019-04-22T17:41:38.837Z,6.40
2019-04-22T17:44:21.731Z,6.40
2019-04-22T17:46:45.893Z,6.73
2019-04-22T17:49:30.334Z,6.80
2019-04-22T17:52:17.151Z,6.77
2019-04-22T17:54:45.812Z,6.20
2019-04-22T17:57:09.856Z,6.83
2019-04-22T17:59:41.780Z,6.10
2019-04-22T18:02:11.529Z,6.87
2019-04-22T18:04:23.362Z,7.00
2019-04-22T18:07:20.299Z,6.93
2019-04-22T18:10:12.076Z,6.57
2019-04-22T18:12:20.067Z,6.70
2019-04-22T18:14:49.685Z,6.23
2019-04-22T18:17:19.654Z,6.90
2019-04-22T18:19:44.881Z,7.00
2019-04-22T18:22:09.164Z,6.75
2019-04-22T18:24:32.738Z,6.63
2019-04-22T18:27:30.488Z,6.30
2019-04-22T18:29:43.504Z,6.73
2019-04-22T18:32:07.405Z,6.97
2019-04-22T18:34:37.261Z,6.60
2019-04-22T18:37:11.729Z,6.70
2019-04-22T18:39:50.989Z,6.80
2019-04-22T18:42:09.287Z,6.40
2019-04-22T18:44:46.146Z,6.17
2019-04-22T18:47:11.732Z,6.73
2019-04-22T18:49:43.207Z,6.30
2019-04-22T18:52:35.563Z,6.67
2019-04-22T18:55:08.545Z,6.83
2019-04-22T18:57:44.091Z,6.70
2019-04-22T19:00:10.841Z,5.70
2019-04-22T19:02:49.489Z,6.30
2019-04-22T19:05:22.171Z,6.70
2019-04-22T19:08:06.959Z,7.33
2019-04-22T19:10:43.215Z,6.87
2019-04-22T19:13:34.823Z,6.80
2019-04-22T19:15:38.253Z,6.33
2019-04-22T19:18:12.765Z,6.77
2019-04-22T19:20:37.364Z,6.70
2019-04-22T19:23:12.891Z,6.50
2019-04-22T19:25:33.258Z,6.50
2019-04-22T19:28:19.043Z,6.07
2019-04-22T19:30:46.892Z,6.50
2019-04-22T19:33:17.690Z,6.20
2019-04-22T19:35:35.096Z,5.77
2019-04-22T19:38:00.105Z,6.13
2019-04-22T19:40:58.125Z,5.80
2019-04-22T19:43:15.432Z,6.40
2019-04-22T19:45:42.986Z,6.27
2019-04-22T19:48:25.503Z,6.30
2019-04-22T19:50:54.478Z,5.90
2019-04-22T19:53:19.500Z,6.10
2019-04-22T19:55:47.000Z,5.97
2019-04-22T19:58:15.102Z,6.13
2019-04-22T20:00:54.553Z,6.00
2019-04-22T20:03:58.061Z,5.80
2019-04-22T20:06:33.560Z,5.87
2019-04-22T20:09:11.968Z,5.50
2019-04-22T20:11:34.204Z,5.90
2019-04-22T20:14:07.401Z,5.63
2019-04-22T20:16:31.949Z,5.37
2019-04-22T20:19:12.293Z,5.53
2019-04-22T20:21:40.296Z,5.37
2019-04-22T20:23:57.149Z,5.80
2019-04-22T20:26:44.311Z,5.40
2019-04-22T20:29:17.281Z,5.67
2019-04-22T20:31:37.866Z,5.50
2019-04-22T20:34:15.510Z,5.17
2019-04-22T20:39:02.184Z,5.40
2019-04-22T20:41:34.152Z,5.43
2019-04-22T20:44:13.381Z,5.87
2019-04-22T20:46:35.775Z,6.00
2019-04-22T20:49:16.419Z,6.00
2019-04-22T20:51:48.789Z,5.43
2019-04-22T20:54:12.267Z,5.00
2019-04-22T20:56:38.584Z,6.00
2019-04-22T20:59:08.662Z,5.57
2019-04-22T21:01:39.975Z,5.93
2019-04-22T21:03:57.662Z,5.73
2019-04-22T21:06:36.862Z,6.10
2019-04-22T21:09:12.349Z,5.67
2019-04-22T21:11:38.563Z,5.90
2019-04-22T21:14:06.382Z,5.93
2019-04-22T21:16:44.468Z,5.50
2019-04-22T21:19:21.559Z,5.73
2019-04-22T21:21:48.418Z,6.13
2019-04-22T21:24:09.256Z,6.13
2019-04-22T21:26:40.002Z,6.20
2019-04-22T21:29:12.636Z,6.70
2019-04-22T21:31:45.459Z,6.10
2019-04-22T21:34:12.490Z,6.03
2019-04-22T21:36:50.591Z,6.10
2019-04-22T21:39:12.084Z,6.17
2019-04-22T21:41:44.667Z,6.20
2019-04-22T21:44:14.054Z,6.30
2019-04-22T21:46:51.345Z,6.20
2019-04-22T21:49:18.954Z,6.13
2019-04-22T21:51:51.116Z,6.50
2019-04-22T21:54:22.471Z,6.70
2019-04-22T21:57:01.826Z,6.57
2019-04-22T21:59:19.246Z,6.30
2019-04-22T22:01:55.480Z,6.17
2019-04-22T22:04:20.424Z,6.80
2019-04-22T22:06:41.391Z,6.47
2019-04-22T22:09:22.851Z,5.87
2019-04-22T22:11:49.263Z,6.43
2019-04-22T22:14:21.095Z,6.50
2019-04-22T22:16:43.482Z,7.23
2019-04-22T22:19:25.592Z,7.00
2019-04-22T22:21:58.639Z,6.40
2019-04-22T22:24:23.019Z,6.47
2019-04-22T22:27:02.658Z,7.30
2019-04-22T22:29:36.806Z,6.57
2019-04-22T22:32:03.223Z,6.77
2019-04-22T22:34:24.953Z,6.90
2019-04-22T22:36:47.160Z,6.03
2019-04-22T22:39:17.333Z,7.33
2019-04-22T22:41:34.192Z,6.87
2019-04-22T22:44:13.084Z,6.67
2019-04-22T22:46:43.768Z,7.03
2019-04-22T22:49:28.347Z,7.00
2019-04-22T22:52:02.495Z,6.90
2019-04-22T22:54:30.457Z,6.87
2019-04-22T22:57:17.156Z,7.40
2019-04-22T22:59:29.579Z,6.50
2019-04-22T23:01:54.439Z,6.63
2019-04-22T23:04:29.310Z,7.43
2019-04-22T23:06:56.318Z,7.17
2019-04-22T23:09:29.080Z,7.00
2019-04-22T23:12:24.821Z,6.97
2019-04-22T23:14:35.011Z,7.37
2019-04-22T23:16:47.739Z,7.37
2019-04-22T23:19:10.984Z,7.13
2019-04-22T23:21:45.511Z,7.43
2019-04-22T23:24:29.967Z,7.30
2019-04-22T23:27:04.310Z,6.87
2019-04-22T23:29:32.278Z,7.30
2019-04-22T23:32:17.252Z,7.10
2019-04-22T23:34:49.815Z,7.20
2019-04-22T23:37:19.152Z,7.17
2019-04-22T23:40:02.215Z,7.50
2019-04-22T23:42:21.913Z,7.67
2019-04-22T23:45:00.359Z,8.13
2019-04-22T23:47:26.101Z,7.70
2019-04-22T23:50:01.012Z,7.90
2019-04-22T23:52:35.414Z,7.60
2019-04-22T23:55:10.130Z,7.97
2019-04-22T23:57:50.561Z,8.27
